This is the latest recevied weather packets stored in our database for station/object EB1TR-13. If no packets are shown the sender has not sent any weather packets the latest 10 day(s).
| Time | Temp. | Humidity | Pressure | Rain* | Wind** | Luminosity | Snow |
|---|---|---|---|---|---|---|---|
| 1778014786 | 12.78° C | 88% | 1016 hPa | 0 mm | - | 0 W/m² | - |
| 1778013886 | 12.78° C | 88% | 1016 hPa | 0 mm | - | 0 W/m² | - |
| 1778012986 | 12.78° C | 88% | 1016 hPa | 0 mm | - | 0 W/m² | - |
| 1778012085 | 12.78° C | 87% | 1016 hPa | 0 mm | - | 0 W/m² | - |
| 1778011186 | 12.78° C | 87% | 1016 hPa | 0 mm | - | 0 W/m² | - |
| 1778010286 | 14.44° C | 80% | 1016 hPa | 0 mm | - | 0 W/m² | - |
| 1778009386 | 14.44° C | 81% | 1015 hPa | 0 mm | - | 0 W/m² | - |
| 1778008486 | 14.44° C | 82% | 1015 hPa | 0 mm | - | 0 W/m² | - |
| 1778007586 | 15.56° C | 77% | 1015 hPa | 0 mm | - | 0 W/m² | - |
| 1778006686 | 15.56° C | 75% | 1014 hPa | 0 mm | - | 0 W/m² | - |
| 1778005786 | 15.56° C | 76% | 1015 hPa | 0 mm | - | 0 W/m² | - |
| 1778004886 | 15° C | 78% | 1015 hPa | 0 mm | - | 0 W/m² | - |
| 1778003986 | 15° C | 77% | 1015 hPa | 0 mm | - | 0 W/m² | - |
| 1778003086 | 15.56° C | 77% | 1014 hPa | 0 mm | - | 0 W/m² | - |
| 1778002186 | 15.56° C | 77% | 1014 hPa | 0 mm | - | 0 W/m² | - |
| 1778001286 | 16.11° C | 76% | 1015 hPa | 0 mm | - | 0 W/m² | - |
| 1778000387 | 16.11° C | 77% | 1015 hPa | 0 mm | - | 0 W/m² | - |
| 1777999486 | 16.67° C | 74% | 1015 hPa | 0 mm | - | 0 W/m² | - |
| 1777998586 | 16.67° C | 74% | 1015 hPa | 0 mm | - | 0 W/m² | - |
| 1777997686 | 16.67° C | 74% | 1015 hPa | 0 mm | - | 0 W/m² | - |
| 1777996786 | 16.11° C | 74% | 1015 hPa | 0 mm | - | 0 W/m² | - |
| 1777995886 | 16.11° C | 76% | 1015 hPa | 0 mm | - | 0 W/m² | - |
| 1777994986 | 16.11° C | 75% | 1015 hPa | 0 mm | - | 0 W/m² | - |
| 1777994086 | 16.67° C | 76% | 1015 hPa | 0 mm | - | 0 W/m² | - |
| 1777993186 | 16.67° C | 75% | 1014 hPa | 0 mm | - | 0 W/m² | - |
* Rain latest hour (hover to see other rain measurements)
** Current wind speed in m/s (hover to see current wind gust speed)